Time;durP1;ratioP1;P1;durP2;ratioP2;P2;SDS_P1;SDS_P2;PMS_P1;PMS_P2;Temp;Humidity;BMP_temperature;BMP_pressure;BME280_temperature;BME280_humidity;BME280_pressure;Samples;Min_cycle;Max_cycle;Signal;HPM_P1;HPM_P2
2021/06/13 00:00:24;;;;;;;2.40;0.60;;;23.70;99.90;;;;;;4991932;28;20293;-94
2021/06/13 00:02:56;;;;;;;2.70;0.67;;;23.80;99.90;;;;;;4997269;28;20276;-94
2021/06/13 00:05:27;;;;;;;1.27;0.60;;;23.70;99.90;;;;;;4997855;28;20236;-94
2021/06/13 00:07:57;;;;;;;0.50;0.50;;;23.70;99.90;;;;;;4997927;28;20289;-94
2021/06/13 00:10:27;;;;;;;2.20;0.60;;;23.70;99.90;;;;;;4996697;28;20290;-94
2021/06/13 00:12:59;;;;;;;0.70;0.63;;;23.70;99.90;;;;;;4997556;28;20252;-94
2021/06/13 00:15:30;;;;;;;1.47;0.70;;;23.70;99.90;;;;;;4997486;28;20214;-95
2021/06/13 00:18:00;;;;;;;0.60;0.57;;;23.60;99.90;;;;;;4978181;28;20249;-94
2021/06/13 00:20:31;;;;;;;0.47;0.40;;;23.50;99.90;;;;;;4977951;28;20704;-94
2021/06/13 00:23:01;;;;;;;1.60;0.40;;;23.50;99.90;;;;;;4978409;28;20277;-95
2021/06/13 00:25:32;;;;;;;0.90;0.47;;;23.40;99.90;;;;;;4977643;28;20221;-94
2021/06/13 00:28:04;;;;;;;0.40;0.40;;;23.50;99.90;;;;;;4978758;28;20245;-94
2021/06/13 00:30:35;;;;;;;1.23;0.67;;;23.30;99.90;;;;;;4982172;28;20285;-94
2021/06/13 00:33:06;;;;;;;0.60;0.50;;;23.20;99.90;;;;;;4999290;28;20257;-95
2021/06/13 00:35:36;;;;;;;0.50;0.40;;;23.30;99.90;;;;;;4998869;28;20230;-94
2021/06/13 00:38:07;;;;;;;0.40;0.30;;;23.20;99.90;;;;;;5011277;28;20214;-93
2021/06/13 00:40:39;;;;;;;0.50;0.43;;;23.10;99.90;;;;;;5009450;28;20244;-94
2021/06/13 00:43:11;;;;;;;0.60;0.50;;;23.10;99.90;;;;;;5004453;28;20217;-95
2021/06/13 00:45:41;;;;;;;0.50;0.40;;;23.10;99.90;;;;;;5000261;28;20278;-94
2021/06/13 00:48:12;;;;;;;0.80;0.60;;;23.10;99.90;;;;;;5001118;28;20293;-94
2021/06/13 00:50:44;;;;;;;0.40;0.40;;;23.00;99.90;;;;;;4996778;28;20295;-94
2021/06/13 00:53:15;;;;;;;1.67;0.53;;;23.00;99.90;;;;;;4996035;28;20316;-93
2021/06/13 00:55:46;;;;;;;0.97;0.40;;;22.80;99.90;;;;;;4996068;28;20218;-94
2021/06/13 00:58:19;;;;;;;0.90;0.70;;;23.00;99.90;;;;;;4996902;28;20305;-94
2021/06/13 01:00:50;;;;;;;0.60;0.43;;;22.90;99.90;;;;;;4996174;28;20265;-94
2021/06/13 01:03:22;;;;;;;0.60;0.60;;;22.80;99.90;;;;;;4997917;28;20245;-94
2021/06/13 01:05:53;;;;;;;0.50;0.50;;;22.70;99.90;;;;;;4998036;28;20238;-94
2021/06/13 01:08:33;;;;;;;1.77;0.60;;;22.60;99.90;;;;;;4998095;28;20215;-94
2021/06/13 01:11:19;;;;;;;1.10;0.50;;;22.60;99.90;;;;;;4996338;28;20301;-94
2021/06/13 01:14:01;;;;;;;1.00;0.67;;;22.60;99.90;;;;;;4996189;28;20245;-95
2021/06/13 01:16:41;;;;;;;0.70;0.70;;;22.60;99.90;;;;;;4996941;28;20624;-95
2021/06/13 01:19:33;;;;;;;0.50;0.50;;;22.50;99.90;;;;;;4997577;28;20209;-94
2021/06/13 01:22:16;;;;;;;0.50;0.50;;;22.50;99.90;;;;;;4977430;28;20266;-94
2021/06/13 01:24:58;;;;;;;0.87;0.70;;;22.50;99.90;;;;;;4978701;28;20250;-94
2021/06/13 01:27:50;;;;;;;0.60;0.60;;;22.50;99.90;;;;;;4977648;28;20290;-94
2021/06/13 01:30:25;;;;;;;0.50;0.50;;;22.50;99.90;;;;;;4977457;28;20290;-94
2021/06/13 01:32:56;;;;;;;1.33;0.60;;;22.40;99.90;;;;;;4978928;28;20288;-94
2021/06/13 01:35:28;;;;;;;1.07;0.60;;;22.40;99.90;;;;;;4980211;28;20245;-94
2021/06/13 01:37:59;;;;;;;0.63;0.60;;;22.30;99.90;;;;;;4982190;28;20240;-94
2021/06/13 01:40:33;;;;;;;1.20;0.73;;;22.30;99.90;;;;;;4986762;28;20203;-94
2021/06/13 01:43:05;;;;;;;0.97;0.70;;;22.20;99.90;;;;;;4998096;28;20211;-94
2021/06/13 01:45:39;;;;;;;2.43;0.80;;;22.20;99.90;;;;;;4997846;28;20214;-92
2021/06/13 01:48:13;;;;;;;3.20;0.90;;;22.20;99.90;;;;;;4990309;28;20214;-92
2021/06/13 01:50:45;;;;;;;1.37;0.80;;;22.10;99.90;;;;;;4978553;28;20652;-93
2021/06/13 01:53:18;;;;;;;1.83;0.80;;;22.10;99.90;;;;;;4992145;28;20266;-93
2021/06/13 01:55:50;;;;;;;1.40;0.90;;;22.10;99.90;;;;;;5009751;28;20210;-93
2021/06/13 01:58:21;;;;;;;3.27;1.13;;;22.00;99.90;;;;;;5016519;28;20194;-93
2021/06/13 02:00:56;;;;;;;3.63;0.93;;;21.90;99.90;;;;;;4999412;28;20280;-92
2021/06/13 02:03:27;;;;;;;1.93;0.90;;;21.90;99.90;;;;;;4996222;28;20645;-93
2021/06/13 02:05:58;;;;;;;1.17;1.00;;;21.90;99.90;;;;;;4996394;28;20286;-93
2021/06/13 02:08:34;;;;;;;3.43;0.90;;;21.90;99.90;;;;;;4995444;28;20737;-93
2021/06/13 02:11:05;;;;;;;0.93;0.90;;;21.90;99.90;;;;;;4993926;28;20215;-93
2021/06/13 02:13:37;;;;;;;0.83;0.80;;;21.80;99.90;;;;;;4995093;28;20320;-93
2021/06/13 02:16:10;;;;;;;1.50;0.73;;;21.70;99.90;;;;;;4995716;28;20289;-94
2021/06/13 02:18:42;;;;;;;2.80;1.00;;;21.70;99.90;;;;;;4995628;28;20224;-94
2021/06/13 02:21:15;;;;;;;2.00;1.30;;;21.70;99.90;;;;;;4994663;28;20277;-94
2021/06/13 02:23:46;;;;;;;1.87;0.80;;;21.70;99.90;;;;;;4995533;28;20222;-93
2021/06/13 02:26:19;;;;;;;0.80;0.70;;;21.60;99.90;;;;;;4995517;28;20257;-94
2021/06/13 02:28:58;;;;;;;1.97;0.90;;;21.50;99.90;;;;;;4995287;28;20210;-93
2021/06/13 02:31:34;;;;;;;1.37;0.90;;;21.40;99.90;;;;;;4994598;28;20205;-94
2021/06/13 02:34:05;;;;;;;1.00;0.83;;;21.30;99.90;;;;;;4995093;28;20240;-93
2021/06/13 02:36:37;;;;;;;2.73;1.00;;;21.30;99.90;;;;;;4995368;28;20198;-93
2021/06/13 02:39:09;;;;;;;1.20;0.83;;;21.30;99.90;;;;;;4994929;28;20198;-94
2021/06/13 02:41:40;;;;;;;1.70;1.00;;;21.20;99.90;;;;;;4995903;28;20297;-93
2021/06/13 02:44:11;;;;;;;1.13;0.90;;;21.20;99.90;;;;;;4995590;28;20301;-93
2021/06/13 02:46:44;;;;;;;3.33;0.90;;;21.10;99.90;;;;;;4995274;28;20289;-93
2021/06/13 02:49:14;;;;;;;2.53;0.70;;;21.00;99.90;;;;;;4995901;28;20256;-93
2021/06/13 02:51:56;;;;;;;1.00;0.90;;;21.00;99.90;;;;;;4996299;28;20682;-93
2021/06/13 02:54:29;;;;;;;1.43;0.93;;;20.90;99.90;;;;;;4995325;28;20237;-93
2021/06/13 02:57:00;;;;;;;1.27;1.00;;;20.80;99.90;;;;;;4996517;28;20206;-93
2021/06/13 02:59:38;;;;;;;1.03;0.90;;;20.80;99.90;;;;;;4993949;28;20210;-93
2021/06/13 03:02:13;;;;;;;2.17;0.93;;;20.80;99.90;;;;;;4994170;28;20289;-92
2021/06/13 03:04:46;;;;;;;1.23;1.00;;;20.70;99.90;;;;;;4994775;28;20241;-93
2021/06/13 03:07:19;;;;;;;1.23;1.07;;;20.60;99.90;;;;;;4994923;28;20234;-93
2021/06/13 03:09:51;;;;;;;2.03;1.00;;;20.60;99.90;;;;;;4992920;28;20293;-93
2021/06/13 03:12:23;;;;;;;1.40;1.00;;;20.60;99.90;;;;;;4993884;28;20325;-93
2021/06/13 03:14:55;;;;;;;1.40;0.97;;;20.60;99.90;;;;;;4995664;28;20297;-93
2021/06/13 03:17:28;;;;;;;4.57;1.00;;;20.40;99.90;;;;;;4997344;28;20278;-93
2021/06/13 03:20:00;;;;;;;1.87;1.30;;;20.30;99.90;;;;;;4999387;28;20724;-94
2021/06/13 03:22:34;;;;;;;3.03;1.33;;;20.20;99.90;;;;;;4998464;28;20620;-94
2021/06/13 03:25:07;;;;;;;1.47;1.10;;;20.20;99.90;;;;;;4999541;28;20210;-94
2021/06/13 03:27:42;;;;;;;0.93;0.90;;;20.10;99.90;;;;;;4999700;28;20213;-93
2021/06/13 03:30:16;;;;;;;1.87;1.10;;;20.10;99.90;;;;;;4997816;28;20717;-95
2021/06/13 03:32:48;;;;;;;1.33;1.20;;;20.10;99.90;;;;;;4998654;28;20699;-94
2021/06/13 03:35:22;;;;;;;2.03;1.40;;;20.30;99.90;;;;;;5000053;28;20659;-93
2021/06/13 03:37:56;;;;;;;2.07;1.30;;;20.20;99.90;;;;;;5000049;28;20206;-92
2021/06/13 03:40:29;;;;;;;2.50;1.87;;;20.10;99.90;;;;;;4995982;28;20576;-94
2021/06/13 03:43:01;;;;;;;2.63;2.13;;;20.00;99.90;;;;;;4998811;28;20290;-93
2021/06/13 03:45:33;;;;;;;2.00;1.37;;;20.00;99.90;;;;;;4996960;28;20309;-94
2021/06/13 03:48:07;;;;;;;3.33;1.50;;;19.90;99.90;;;;;;4997981;28;20214;-93
2021/06/13 03:50:38;;;;;;;2.53;1.90;;;19.90;99.90;;;;;;4997217;28;20232;-94
2021/06/13 03:53:10;;;;;;;2.27;1.73;;;19.90;99.90;;;;;;4997680;28;20777;-94
2021/06/13 03:55:41;;;;;;;2.27;1.87;;;19.80;99.90;;;;;;4997659;28;20206;-93
2021/06/13 03:58:13;;;;;;;2.30;1.83;;;19.70;99.90;;;;;;4997770;28;20244;-92
2021/06/13 04:00:46;;;;;;;2.80;1.80;;;19.70;99.90;;;;;;4997204;28;20297;-94
2021/06/13 04:03:21;;;;;;;2.43;2.00;;;19.70;99.90;;;;;;4997548;28;20210;-91
2021/06/13 04:05:53;;;;;;;2.40;1.60;;;19.70;99.90;;;;;;4998392;28;20198;-92
2021/06/13 04:08:25;;;;;;;2.67;1.70;;;19.60;99.90;;;;;;4982619;28;20614;-91
2021/06/13 04:10:56;;;;;;;2.30;1.70;;;19.60;99.90;;;;;;4998165;28;20234;-91
2021/06/13 04:13:30;;;;;;;2.47;1.60;;;19.50;99.90;;;;;;4999011;28;20769;-94
2021/06/13 04:16:01;;;;;;;4.17;1.87;;;19.40;99.90;;;;;;5006596;28;20217;-94
2021/06/13 04:18:35;;;;;;;3.73;1.40;;;19.50;99.90;;;;;;5038293;28;20193;-94
2021/06/13 04:21:07;;;;;;;4.80;1.27;;;19.40;99.90;;;;;;5037036;28;20217;-94
2021/06/13 04:23:40;;;;;;;3.07;1.33;;;19.40;99.90;;;;;;5011330;28;20214;-94
2021/06/13 04:26:14;;;;;;;2.30;1.23;;;19.30;99.90;;;;;;4998946;28;20234;-95
2021/06/13 04:28:46;;;;;;;2.33;1.33;;;19.30;99.90;;;;;;4999132;28;20388;-94
2021/06/13 04:31:19;;;;;;;1.93;1.07;;;19.20;99.90;;;;;;4997874;28;20211;-95
2021/06/13 04:33:54;;;;;;;1.17;1.07;;;19.20;99.90;;;;;;4999130;28;20332;-93
2021/06/13 04:36:25;;;;;;;1.50;1.20;;;19.20;99.90;;;;;;4997905;28;20683;-93
2021/06/13 04:38:56;;;;;;;2.10;1.20;;;19.10;99.90;;;;;;4998425;28;20210;-93
2021/06/13 04:41:27;;;;;;;1.00;0.90;;;19.10;99.90;;;;;;4997872;28;20267;-93
2021/06/13 04:43:58;;;;;;;1.90;1.17;;;19.00;99.90;;;;;;4997800;28;20206;-92
2021/06/13 04:46:31;;;;;;;3.27;1.23;;;19.00;99.90;;;;;;4997687;28;20240;-92
2021/06/13 04:49:04;;;;;;;3.10;1.10;;;19.00;99.90;;;;;;4997397;28;20240;-92
2021/06/13 04:51:38;;;;;;;1.53;1.10;;;18.90;99.90;;;;;;4996654;28;20233;-92
2021/06/13 04:54:38;;;;;;;1.37;1.00;;;18.90;99.90;;;;;;4997299;28;20280;-92
2021/06/13 04:57:36;;;;;;;2.47;1.00;;;18.90;99.90;;;;;;4997429;28;20202;-92
2021/06/13 05:00:07;;;;;;;1.60;0.90;;;18.80;99.90;;;;;;4996020;28;20569;-92
2021/06/13 05:02:41;;;;;;;2.90;1.00;;;18.90;99.90;;;;;;4997048;28;20233;-93
2021/06/13 05:05:17;;;;;;;2.80;1.43;;;18.70;99.90;;;;;;4996902;28;20298;-93
2021/06/13 05:07:47;;;;;;;5.37;1.80;;;18.70;99.90;;;;;;4997159;28;20289;-93
2021/06/13 05:10:18;;;;;;;2.63;1.60;;;18.60;99.90;;;;;;4996394;28;20277;-93
2021/06/13 05:12:50;;;;;;;2.90;1.37;;;18.60;99.90;;;;;;4997096;28;20210;-92
2021/06/13 05:15:24;;;;;;;1.53;1.23;;;18.50;99.90;;;;;;4996881;28;20237;-93
2021/06/13 05:17:55;;;;;;;1.93;1.00;;;18.30;99.90;;;;;;4997345;28;20207;-93
2021/06/13 05:20:28;;;;;;;2.87;1.30;;;18.20;99.90;;;;;;4996028;28;20233;-93
2021/06/13 05:23:01;;;;;;;1.43;1.00;;;18.20;99.90;;;;;;4997172;28;20226;-93
2021/06/13 05:25:34;;;;;;;2.20;1.10;;;18.10;99.90;;;;;;4997832;28;20206;-93
2021/06/13 05:28:10;;;;;;;0.80;0.80;;;18.10;99.90;;;;;;4997390;28;20210;-92
2021/06/13 05:30:44;;;;;;;1.27;0.93;;;18.10;99.90;;;;;;4996459;28;20662;-93
2021/06/13 05:33:15;;;;;;;1.77;0.80;;;18.00;99.90;;;;;;4996600;28;20217;-92
2021/06/13 05:35:49;;;;;;;1.43;1.10;;;17.90;99.90;;;;;;4996649;28;20719;-93
2021/06/13 05:38:21;;;;;;;0.90;0.80;;;17.90;99.90;;;;;;4998624;28;20608;-93
2021/06/13 05:40:52;;;;;;;1.63;1.03;;;17.80;99.90;;;;;;4996013;28;20214;-91
2021/06/13 05:43:23;;;;;;;2.30;1.10;;;17.80;99.90;;;;;;4996670;28;20616;-93
2021/06/13 05:45:54;;;;;;;1.23;1.00;;;17.70;99.90;;;;;;4996458;28;20297;-92
2021/06/13 05:48:25;;;;;;;1.40;1.10;;;17.70;99.90;;;;;;4997311;28;20206;-92
2021/06/13 05:50:58;;;;;;;1.23;1.10;;;17.60;99.90;;;;;;4996524;28;20297;-92
2021/06/13 05:53:29;;;;;;;1.37;1.10;;;17.60;99.90;;;;;;4997364;28;20210;-92
2021/06/13 05:56:00;;;;;;;1.50;1.30;;;17.60;99.90;;;;;;4996251;28;20293;-92
2021/06/13 05:58:31;;;;;;;1.70;1.43;;;17.50;99.90;;;;;;4996671;28;20214;-92
2021/06/13 06:01:03;;;;;;;1.90;1.20;;;17.40;99.90;;;;;;4996057;28;20289;-93
2021/06/13 06:03:34;;;;;;;3.23;1.40;;;17.40;99.90;;;;;;4995446;28;20635;-93
2021/06/13 06:06:07;;;;;;;1.80;1.57;;;17.20;99.90;;;;;;4996609;28;20237;-93
2021/06/13 06:08:41;;;;;;;2.20;1.57;;;17.30;99.90;;;;;;4996823;28;20210;-93
2021/06/13 06:11:12;;;;;;;4.43;2.23;;;17.20;99.90;;;;;;4995927;28;20309;-93
2021/06/13 06:13:43;;;;;;;2.60;1.80;;;17.10;99.90;;;;;;4980370;28;20238;-94
2021/06/13 06:16:14;;;;;;;3.93;1.83;;;17.00;99.90;;;;;;4976949;28;20234;-94
2021/06/13 06:18:45;;;;;;;5.97;2.00;;;16.90;99.90;;;;;;4978566;28;20285;-94
2021/06/13 06:21:24;;;;;;;2.97;1.60;;;16.90;99.90;;;;;;4983037;28;20218;-94
2021/06/13 06:23:55;;;;;;;2.27;2.00;;;16.80;99.90;;;;;;4999446;28;20297;-93
2021/06/13 06:26:27;;;;;;;5.67;5.07;;;16.70;99.90;;;;;;4997552;28;20245;-94
2021/06/13 06:29:00;;;;;;;5.90;4.77;;;16.70;99.90;;;;;;4998646;28;20305;-94
2021/06/13 06:31:35;;;;;;;5.53;4.97;;;16.70;99.90;;;;;;5012826;28;20221;-92
2021/06/13 06:34:06;;;;;;;6.10;4.40;;;16.60;99.90;;;;;;5004614;28;20276;-94
2021/06/13 06:36:39;;;;;;;9.57;6.03;;;16.50;99.90;;;;;;5004609;28;20256;-93
2021/06/13 06:39:11;;;;;;;4.73;3.83;;;16.50;99.90;;;;;;5002165;28;20214;-93
2021/06/13 06:41:42;;;;;;;6.77;4.37;;;16.50;99.90;;;;;;4999157;28;20218;-94
2021/06/13 06:44:13;;;;;;;3.77;2.80;;;16.50;99.90;;;;;;4996681;28;20221;-93
2021/06/13 06:46:44;;;;;;;4.07;2.50;;;16.50;99.90;;;;;;4995514;28;20726;-93
2021/06/13 06:49:15;;;;;;;4.80;2.80;;;16.50;99.90;;;;;;5008526;28;20230;-93
2021/06/13 06:51:49;;;;;;;5.37;3.90;;;16.50;99.90;;;;;;5017641;28;20194;-93
2021/06/13 06:54:21;;;;;;;3.97;3.20;;;16.50;99.90;;;;;;5020605;28;20222;-93
2021/06/13 06:56:53;;;;;;;4.90;3.20;;;16.30;99.90;;;;;;5004042;28;20206;-93
2021/06/13 06:59:23;;;;;;;2.43;1.83;;;16.30;99.90;;;;;;5004293;28;20234;-92
2021/06/13 07:01:54;;;;;;;1.93;1.70;;;16.20;99.90;;;;;;5005592;28;20280;-93
2021/06/13 07:04:26;;;;;;;3.10;1.63;;;16.20;99.90;;;;;;5011882;28;20209;-93
2021/06/13 07:06:59;;;;;;;2.17;1.70;;;16.10;99.90;;;;;;5019042;28;20222;-92
2021/06/13 07:09:31;;;;;;;1.70;1.50;;;16.10;99.90;;;;;;5017079;28;20207;-93
2021/06/13 07:12:03;;;;;;;2.30;2.10;;;16.10;99.90;;;;;;5011959;28;20679;-92
2021/06/13 07:14:34;;;;;;;4.70;2.10;;;16.10;99.90;;;;;;5012502;28;20245;-94
2021/06/13 07:17:05;;;;;;;4.63;2.03;;;16.10;99.90;;;;;;5002687;28;20670;-93
2021/06/13 07:19:37;;;;;;;1.77;1.60;;;16.10;99.90;;;;;;5002379;28;20663;-93
2021/06/13 07:22:11;;;;;;;2.67;1.90;;;16.00;99.90;;;;;;5000300;28;20668;-93
2021/06/13 07:24:42;;;;;;;3.67;2.00;;;15.90;99.90;;;;;;5001260;28;20343;-93
2021/06/13 07:27:13;;;;;;;5.07;2.20;;;16.00;99.90;;;;;;5000101;28;20218;-93
2021/06/13 07:29:44;;;;;;;3.73;1.63;;;16.00;99.90;;;;;;4997782;28;20289;-92
2021/06/13 07:32:16;;;;;;;4.10;2.00;;;16.00;99.90;;;;;;4999199;28;20293;-92
2021/06/13 07:34:47;;;;;;;3.67;1.93;;;16.00;99.90;;;;;;4998926;28;20248;-92
2021/06/13 07:37:20;;;;;;;2.40;1.80;;;16.00;99.90;;;;;;4999089;28;20297;-92
2021/06/13 07:39:51;;;;;;;3.57;1.87;;;15.90;99.90;;;;;;4998538;28;20297;-92
2021/06/13 07:42:22;;;;;;;2.27;1.80;;;15.80;99.90;;;;;;4998575;28;20293;-92
2021/06/13 07:44:53;;;;;;;3.73;2.10;;;16.00;99.90;;;;;;4998065;28;20244;-91
2021/06/13 07:47:24;;;;;;;3.13;2.10;;;15.80;99.90;;;;;;4996797;28;20214;-92
2021/06/13 07:49:55;;;;;;;4.90;2.13;;;15.80;99.90;;;;;;4996298;28;20249;-91
2021/06/13 07:52:29;;;;;;;4.40;2.17;;;15.70;99.90;;;;;;4998575;28;20289;-93
2021/06/13 07:55:00;;;;;;;9.33;2.93;;;15.60;99.90;;;;;;5001291;28;20245;-92
2021/06/13 07:57:30;;;;;;;1.93;1.73;;;15.60;99.90;;;;;;4998466;28;20223;-92
2021/06/13 08:00:02;;;;;;;6.87;3.17;;;15.60;99.90;;;;;;4998706;28;20230;-92
2021/06/13 08:02:33;;;;;;;4.00;2.37;;;15.60;99.90;;;;;;4979011;28;20287;-92
2021/06/13 08:05:10;;;;;;;3.47;2.00;;;15.70;99.90;;;;;;4979291;28;20294;-93
2021/06/13 08:07:44;;;;;;;2.20;1.80;;;15.60;99.90;;;;;;4986301;28;20228;-94
2021/06/13 08:10:15;;;;;;;2.70;2.13;;;15.50;99.90;;;;;;4997550;28;20297;-93
2021/06/13 08:12:46;;;;;;;2.97;1.90;;;15.50;99.90;;;;;;4998695;28;20318;-94
2021/06/13 08:15:18;;;;;;;3.87;2.40;;;15.60;99.90;;;;;;4998603;28;20262;-95
2021/06/13 08:17:49;;;;;;;6.87;2.47;;;15.50;99.90;;;;;;4999059;28;20539;-94
2021/06/13 08:20:21;;;;;;;4.97;2.30;;;15.60;99.90;;;;;;4998467;28;20210;-94
2021/06/13 08:22:55;;;;;;;4.37;2.50;;;15.60;99.90;;;;;;4998432;28;20301;-94
2021/06/13 08:25:26;;;;;;;5.43;2.70;;;15.60;99.90;;;;;;5000926;28;20202;-94
2021/06/13 08:33:26;;;;;;;5.70;2.77;;;15.60;99.90;;;;;;4999475;28;20210;-94
2021/06/13 08:35:57;;;;;;;6.87;3.13;;;15.60;99.90;;;;;;4996089;28;20242;-94
2021/06/13 08:38:29;;;;;;;8.47;2.87;;;15.50;99.90;;;;;;4997226;28;20297;-94
2021/06/13 08:41:01;;;;;;;5.37;2.93;;;15.60;99.90;;;;;;4996799;28;20253;-94
2021/06/13 08:43:32;;;;;;;6.03;3.13;;;15.60;99.90;;;;;;4997022;28;20297;-94
2021/06/13 08:46:05;;;;;;;6.43;2.83;;;15.50;99.90;;;;;;4997042;28;20677;-93
2021/06/13 08:48:36;;;;;;;4.47;2.93;;;15.60;99.90;;;;;;4996639;28;20245;-94
2021/06/13 08:51:07;;;;;;;4.17;2.93;;;15.60;99.90;;;;;;4996091;28;20289;-94
2021/06/13 08:53:44;;;;;;;4.73;2.73;;;15.50;99.90;;;;;;4995792;28;20257;-94
2021/06/13 08:56:15;;;;;;;4.60;2.63;;;15.50;99.90;;;;;;4996719;28;20268;-94
2021/06/13 08:58:47;;;;;;;3.20;2.90;;;15.40;99.90;;;;;;4997229;28;20296;-93
2021/06/13 09:01:18;;;;;;;4.70;3.17;;;15.40;99.90;;;;;;4997206;28;20240;-95
2021/06/13 09:03:49;;;;;;;3.20;2.60;;;15.30;99.90;;;;;;4997178;28;20289;-94
2021/06/13 09:06:25;;;;;;;4.67;2.70;;;15.40;99.90;;;;;;5001181;28;20627;-94
2021/06/13 09:08:58;;;;;;;4.37;2.77;;;15.30;99.90;;;;;;4999398;28;20240;-94
2021/06/13 09:11:30;;;;;;;4.63;3.00;;;15.30;99.90;;;;;;4996399;28;20241;-92
2021/06/13 09:14:12;;;;;;;4.80;3.00;;;15.20;99.90;;;;;;5003105;28;20191;-93
2021/06/13 09:16:44;;;;;;;3.70;3.00;;;15.30;99.90;;;;;;4998116;28;20231;-93
2021/06/13 09:19:16;;;;;;;3.50;2.80;;;15.40;99.90;;;;;;4996756;28;20218;-92
2021/06/13 09:21:48;;;;;;;7.27;2.73;;;15.40;99.90;;;;;;4979825;28;20211;-92
2021/06/13 09:24:26;;;;;;;2.93;2.63;;;15.40;99.90;;;;;;4980223;28;20290;-93
2021/06/13 09:27:09;;;;;;;3.63;2.77;;;15.50;99.90;;;;;;4977895;28;20207;-92
2021/06/13 09:29:52;;;;;;;3.43;3.00;;;15.50;99.90;;;;;;4976686;28;20227;-92
2021/06/13 09:32:23;;;;;;;6.50;3.13;;;15.40;99.90;;;;;;4976421;28;20219;-92
2021/06/13 09:35:22;;;;;;;3.93;2.80;;;15.40;99.90;;;;;;4976799;28;20265;-93
2021/06/13 09:38:23;;;;;;;5.20;3.10;;;15.40;99.90;;;;;;4976793;28;20293;-92
2021/06/13 09:41:00;;;;;;;3.10;2.80;;;15.40;99.90;;;;;;4975649;28;20723;-93
2021/06/13 09:43:33;;;;;;;3.07;2.30;;;15.40;99.90;;;;;;4982056;28;20751;-92
2021/06/13 09:46:07;;;;;;;4.53;2.90;;;15.40;99.90;;;;;;4995912;28;20357;-92
2021/06/13 09:48:40;;;;;;;4.97;2.57;;;15.40;99.90;;;;;;4995904;28;20213;-92
2021/06/13 09:51:12;;;;;;;5.57;2.77;;;15.40;99.90;;;;;;4994697;28;20210;-92
2021/06/13 09:53:49;;;;;;;4.03;2.97;;;15.40;99.90;;;;;;4990833;28;20214;-92
2021/06/13 09:56:39;;;;;;;6.07;2.57;;;15.30;99.90;;;;;;4995250;28;20234;-92
2021/06/13 09:59:11;;;;;;;5.43;3.03;;;15.40;99.90;;;;;;4998423;28;20203;-94
2021/06/13 10:01:43;;;;;;;3.80;2.90;;;15.50;99.90;;;;;;4975675;28;20695;-93
2021/06/13 10:04:28;;;;;;;5.50;2.97;;;15.40;99.90;;;;;;4977380;28;20222;-94
2021/06/13 10:07:02;;;;;;;4.03;2.47;;;15.40;99.90;;;;;;4975903;28;20622;-94
2021/06/13 10:09:41;;;;;;;7.23;2.63;;;15.40;99.90;;;;;;4976245;28;20223;-93
2021/06/13 10:12:16;;;;;;;5.17;2.63;;;15.40;99.90;;;;;;4975543;28;20217;-92
2021/06/13 10:14:48;;;;;;;7.77;2.87;;;15.40;99.90;;;;;;4975806;28;20286;-93
2021/06/13 10:17:19;;;;;;;5.40;3.13;;;15.40;99.90;;;;;;4976182;28;20642;-93
2021/06/13 10:19:51;;;;;;;3.60;3.00;;;15.40;99.90;;;;;;4975190;28;20627;-93
2021/06/13 10:22:24;;;;;;;4.07;2.93;;;15.40;99.90;;;;;;4976112;28;20217;-92
2021/06/13 10:24:58;;;;;;;7.30;3.30;;;15.40;99.90;;;;;;4976503;28;20632;-92
2021/06/13 10:27:31;;;;;;;6.43;3.20;;;15.40;99.90;;;;;;4979901;28;20213;-93
2021/06/13 10:30:03;;;;;;;5.17;3.10;;;15.40;99.90;;;;;;4978893;28;20214;-92
2021/06/13 10:32:34;;;;;;;9.17;3.43;;;15.40;99.90;;;;;;4998650;28;20209;-92
2021/06/13 10:35:06;;;;;;;3.23;2.57;;;15.40;99.90;;;;;;5018822;28;20224;-93
2021/06/13 10:37:37;;;;;;;5.33;3.10;;;15.40;99.90;;;;;;5019061;28;20249;-93
2021/06/13 10:40:10;;;;;;;3.17;2.57;;;15.40;99.90;;;;;;5018119;28;20248;-93
2021/06/13 10:42:44;;;;;;;3.63;2.80;;;15.40;99.90;;;;;;5018983;28;20217;-93
2021/06/13 10:45:19;;;;;;;6.17;2.50;;;15.30;99.90;;;;;;4999067;28;20234;-92
2021/06/13 10:48:06;;;;;;;4.57;2.53;;;15.40;99.90;;;;;;4998715;28;20210;-92
2021/06/13 10:50:38;;;;;;;4.50;2.30;;;15.40;99.90;;;;;;4998219;28;20617;-92
2021/06/13 10:53:10;;;;;;;5.43;2.60;;;15.30;99.90;;;;;;4998646;28;20270;-92
2021/06/13 10:55:52;;;;;;;2.70;2.43;;;15.40;99.90;;;;;;4998737;28;20241;-92
2021/06/13 10:59:03;;;;;;;4.03;2.50;;;15.40;99.90;;;;;;4998963;28;20236;-92
2021/06/13 11:01:38;;;;;;;5.93;2.53;;;15.40;99.90;;;;;;4976387;28;20290;-92
2021/06/13 11:04:09;;;;;;;3.60;2.50;;;15.40;99.90;;;;;;4977420;28;20206;-92
2021/06/13 11:06:48;;;;;;;8.20;2.70;;;15.40;99.90;;;;;;4990169;28;20218;-92
2021/06/13 11:09:21;;;;;;;2.60;2.40;;;15.40;99.90;;;;;;4997867;28;20733;-92
2021/06/13 11:11:55;;;;;;;4.07;2.60;;;15.40;99.90;;;;;;4997900;28;20242;-92
2021/06/13 11:14:30;;;;;;;5.33;2.57;;;15.40;99.90;;;;;;4997796;28;20222;-92
2021/06/13 11:17:01;;;;;;;4.50;2.30;;;15.40;99.90;;;;;;4998859;28;20321;-92
2021/06/13 11:19:34;;;;;;;2.50;2.10;;;15.40;99.90;;;;;;4998569;28;20214;-92
2021/06/13 11:22:35;;;;;;;2.90;2.40;;;15.40;99.90;;;;;;4997606;28;20638;-92
2021/06/13 11:25:20;;;;;;;3.63;2.40;;;15.40;99.90;;;;;;5012142;28;20263;-92
2021/06/13 11:28:11;;;;;;;2.40;2.20;;;15.40;99.90;;;;;;5016787;28;20252;-91
2021/06/13 11:30:46;;;;;;;2.70;2.07;;;15.40;99.90;;;;;;5017932;28;20572;-92
2021/06/13 11:33:37;;;;;;;3.47;2.50;;;15.40;99.90;;;;;;5018495;28;20209;-92
2021/06/13 11:36:29;;;;;;;2.23;2.00;;;15.30;99.90;;;;;;5020970;28;20288;-90
2021/06/13 11:39:24;;;;;;;3.53;2.10;;;15.30;99.90;;;;;;5039135;28;20186;-92
2021/06/13 11:42:10;;;;;;;2.50;2.30;;;15.30;99.90;;;;;;5038795;28;20236;-92
2021/06/13 11:44:43;;;;;;;2.33;1.80;;;15.40;99.90;;;;;;5013490;28;20237;-91
2021/06/13 11:47:34;;;;;;;3.20;1.90;;;15.30;99.90;;;;;;4999422;28;20210;-92
2021/06/13 11:50:11;;;;;;;3.47;2.20;;;15.30;99.90;;;;;;4998363;28;20245;-91
2021/06/13 11:53:13;;;;;;;2.57;2.00;;;15.30;99.90;;;;;;4999397;28;20217;-92
2021/06/13 11:56:02;;;;;;;3.43;2.77;;;15.20;99.90;;;;;;4997120;28;20292;-91
2021/06/13 11:58:35;;;;;;;3.33;2.17;;;15.20;99.90;;;;;;4998248;28;20238;-91
2021/06/13 12:01:07;;;;;;;2.20;2.00;;;15.30;99.90;;;;;;4997549;28;20210;-90
2021/06/13 12:03:47;;;;;;;3.07;2.10;;;15.30;99.90;;;;;;4998523;28;20217;-92
2021/06/13 12:06:20;;;;;;;4.10;2.10;;;15.30;99.90;;;;;;4998836;28;20220;-92
2021/06/13 12:08:53;;;;;;;3.37;1.70;;;15.40;99.90;;;;;;5005036;28;20361;-91
2021/06/13 12:11:32;;;;;;;2.83;1.70;;;15.40;99.90;;;;;;5016033;28;20229;-91
2021/06/13 12:14:29;;;;;;;2.70;1.80;;;15.40;99.90;;;;;;5003380;28;20301;-92
2021/06/13 12:17:01;;;;;;;3.03;1.60;;;15.40;99.90;;;;;;4998228;28;20252;-92
2021/06/13 12:19:44;;;;;;;4.33;1.60;;;15.40;99.90;;;;;;4998725;28;20211;-92
2021/06/13 12:22:27;;;;;;;2.33;1.60;;;15.40;99.90;;;;;;4999683;28;20233;-92
2021/06/13 12:27:48;;;;;;;2.20;2.00;;;15.30;99.90;;;;;;5000309;28;20237;-92
2021/06/13 12:30:22;;;;;;;2.20;1.70;;;15.30;99.90;;;;;;5018726;28;20258;-92
2021/06/13 12:32:58;;;;;;;4.93;1.70;;;15.40;99.90;;;;;;5037602;28;20210;-92
2021/06/13 12:35:33;;;;;;;2.17;1.97;;;15.40;99.90;;;;;;5037278;28;20206;-92
2021/06/13 12:38:07;;;;;;;2.33;1.87;;;15.40;99.90;;;;;;5026922;28;20235;-92
2021/06/13 12:40:40;;;;;;;2.77;1.60;;;15.40;99.90;;;;;;5021144;28;20216;-92
2021/06/13 12:43:12;;;;;;;6.10;1.73;;;15.50;99.90;;;;;;5016745;28;20225;-92
2021/06/13 12:45:45;;;;;;;3.17;1.47;;;15.40;99.90;;;;;;4999700;28;20261;-92
2021/06/13 12:48:22;;;;;;;3.50;1.90;;;15.40;99.90;;;;;;4998545;28;20218;-91
2021/06/13 12:50:54;;;;;;;4.77;1.60;;;15.50;99.90;;;;;;5002766;28;20240;-90
2021/06/13 12:53:33;;;;;;;1.90;1.40;;;15.50;99.90;;;;;;5003267;28;20226;-92
2021/06/13 12:56:05;;;;;;;1.50;1.10;;;15.50;99.90;;;;;;5001433;28;20244;-92
2021/06/13 12:58:40;;;;;;;3.60;1.00;;;15.50;99.90;;;;;;5000877;28;20368;-92
2021/06/13 13:01:14;;;;;;;1.10;0.80;;;15.50;99.90;;;;;;4653196;28;9999782;-92
2021/06/13 13:03:48;;;;;;;3.53;1.00;;;15.40;99.90;;;;;;4996828;28;20217;-92
2021/06/13 13:06:21;;;;;;;1.23;0.63;;;15.40;99.90;;;;;;4996253;28;20210;-92
2021/06/13 13:08:53;;;;;;;2.23;0.67;;;15.30;99.90;;;;;;4995634;28;20234;-91
2021/06/13 13:11:28;;;;;;;3.30;0.70;;;15.20;99.90;;;;;;4998977;28;20274;-91
2021/06/13 13:14:02;;;;;;;2.33;0.80;;;15.20;99.90;;;;;;4997665;28;20260;-89
2021/06/13 13:16:35;;;;;;;1.80;0.57;;;15.20;99.90;;;;;;4996635;28;20413;-92
2021/06/13 13:19:06;;;;;;;2.30;1.00;;;15.20;99.90;;;;;;4995159;28;20241;-92
2021/06/13 13:21:41;;;;;;;1.27;0.60;;;15.20;99.90;;;;;;4995117;28;20241;-92
2021/06/13 13:24:33;;;;;;;3.37;0.67;;;15.20;99.90;;;;;;4996246;28;20662;-92
2021/06/13 13:27:06;;;;;;;2.47;0.60;;;15.10;99.90;;;;;;4995962;28;20210;-91
2021/06/13 13:29:42;;;;;;;4.03;0.70;;;15.10;99.90;;;;;;4996342;28;20218;-92
2021/06/13 13:32:13;;;;;;;2.13;0.77;;;15.10;99.90;;;;;;4995718;28;20210;-92